• Join FlightAware (Why Join?)
  • Login
  • US Flag 
04:56PM EDT


 

Airport Tracker/Info


-or-


 

Live Flight TrackerFlight Track Log ✈ SWA268 ✈ 12-Apr-2013 ✈ KSNA - KLAS

Flight Track Log - Related Links

Times and Time Zones

All times are in EDT time to prevent confusion due to time zone crossing. See the SWA268 flight status page for this flight to view local times or setup timezone preferences in your user account.

Time Position Orientation Groundspeed Altitude Reporting Facility
EDT Latitude Longitude Course Direction KTS MPH feet Rate Location/Type
12:09PM 33.6500 -117.8833 192° South 147 169 1,500  Level Southern California TRACON
12:10PM 33.5975 -117.8967 192° South 157 181 3,200 2,040 Climbing Los Angeles Center
12:11PM 33.5331 -117.9106 190° South 219 252 6,200 1,920 Climbing Los Angeles Center
12:12PM 33.5044 -117.9794 244° Southwest 251 289 7,200 1,680 Climbing Los Angeles Center
12:13PM 33.5183 -118.0769 280° West 289 333 9,700 2,220 Climbing Los Angeles Center
12:14PM 33.5808 -118.1486 316° Northwest 330 380 11,900 2,520 Climbing Los Angeles Center
12:15PM 33.6683 -118.1150 18° North 339 390 15,000 2,700 Climbing Los Angeles Center
12:16PM 33.7708 -118.0586 25° Northeast 340 391 17,500 2,700 Climbing Los Angeles Center
12:17PM 33.8519 -117.9922 34° Northeast 358 412 20,700 2,760 Climbing Los Angeles Center
12:18PM 33.9331 -117.9189 37° Northeast 364 419 23,300 2,700 Climbing Los Angeles Center
12:19PM 34.0175 -117.8419 37° Northeast 378 435 26,400 1,740 Climbing Los Angeles Center
12:20PM 34.0986 -117.7639 39° Northeast 375 432 27,000 240 Climbing Los Angeles Center
12:21PM 34.1797 -117.6500 49° Northeast 373 429 27,000  Level Los Angeles Center
12:22PM 34.2497 -117.5556 48° Northeast 377 434 27,000  Level Los Angeles Center
12:23PM 34.3183 -117.4617 48° Northeast 376 433 27,000  Level Los Angeles Center
12:24PM 34.3903 -117.3639 48° Northeast 372 428 27,000  Level Los Angeles Center
12:26PM 34.4600 -117.2697 48° Northeast 376 433 27,000  Level Los Angeles Center
12:27PM 34.5289 -117.1747 49° Northeast 377 434 27,000  Level Los Angeles Center
12:28PM 34.5983 -117.0794 48° Northeast 379 436 27,000  Level Los Angeles Center
12:29PM 34.6814 -116.9656 48° Northeast 379 436 27,000  Level Los Angeles Center
12:30PM 34.7494 -116.8703 49° Northeast 375 432 27,000  Level Los Angeles Center
12:31PM 34.8183 -116.7750 49° Northeast 376 433 27,000  Level Los Angeles Center
12:32PM 34.8881 -116.6775 49° Northeast 381 438 27,000  Level Los Angeles Center
12:33PM 34.9617 -116.5758 49° Northeast 395 455 27,000 -840 Level Los Angeles Center
12:34PM 35.0558 -116.4583 46° Northeast 405 466 25,300 -1,500 Descending Los Angeles Center
12:35PM 35.1311 -116.3650 45° Northeast 393 452 24,000 -660 Descending Los Angeles Center
12:36PM 35.2072 -116.2706 45° Northeast 393 452 24,000 -120 Level Los Angeles Center
12:37PM 35.2825 -116.1747 46° Northeast 391 450 23,800 -1,260 Descending Los Angeles Center
12:38PM 35.3564 -116.0806 46° Northeast 385 443 21,500 -2,400 Descending Los Angeles Center
12:39PM 35.4431 -115.9694 46° Northeast 377 434 18,800 -2,400 Descending Los Angeles Center
12:40PM 35.5117 -115.8858 45° Northeast 379 436 16,700 -2,040 Descending Los Angeles Center
12:41PM 35.5789 -115.7989 46° Northeast 362 417 14,600 -1,740 Descending Los Angeles Center
12:42PM 35.6536 -115.7111 44° Northeast 341 392 13,200 -840 Descending Los Angeles Center
12:43PM 35.7297 -115.6444 35° Northeast 347 399 13,000 -120 Descending Los Angeles Center
12:44PM 35.8131 -115.5700 36° Northeast 346 398 13,000  Level Los Angeles Center
12:45PM 35.8872 -115.5036 36° Northeast 330 380 13,000 -360 Level Los Angeles Center
12:46PM 35.9489 -115.4383 41° Northeast 294 338 12,300 -1,260 Descending Los Angeles Center
12:47PM 35.9769 -115.3389 71° East 306 352 10,500 -1,380 Descending Los Angeles Center
12:48PM 36.0058 -115.2419 70° East 301 346 9,600 -1,080 Descending Los Angeles Center
12:49PM 36.0125 -115.1333 86° East 285 328 8,300 -840 Descending Los Angeles Center
12:50PM 36.0083 -115.0550 94° East 244 281 8,000 -300 Descending Los Angeles Center
12:50PM 36.0083 -115.0389 90° East 274 315 8,000 -120 Level Los Angeles Center
12:51PM 36.0036 -114.9742 95° East 219 252 7,900 -240 Descending Los Angeles Center
12:51PM 36.0036 -114.9597 90° East 254 292 7,800 -840 Descending Los Angeles Center
12:52PM 35.9994 -114.9064 96° East 197 227 7,100 -900 Descending Los Angeles Center
12:52PM 36.0003 -114.8942 85° East 222 255 6,900 -1,020 Descending Los Angeles Center
12:53PM 36.0106 -114.8494 74° East 195 224 6,100 -1,080 Descending Los Angeles Center
12:53PM 36.0269 -114.8464 North 204 235 5,800 -1,020 Descending Los Angeles Center
12:54PM 36.0503 -114.8814 310° West 192 221 5,100 -780 Descending Los Angeles Center
12:54PM 36.0561 -114.8944 299° West 191 220 5,000 -180 Descending Los Angeles Center
12:55PM 36.0683 -114.9444 287° West 181 208 4,900 -420 Descending Los Angeles Center
12:56PM 36.0714 -114.9539 292° West 186 214 4,600 -1,200 Descending Los Angeles Center
12:56PM 36.0744 -115.0117 274° West 182 209 3,700 -1,020 Descending Los Angeles Center
12:57PM 36.0769 -115.0172 299° West 184 212 3,600 -780 Descending Los Angeles Center
12:57PM 36.0725 -115.0628 263° West 177 204 3,000 -780 Descending Los Angeles Center
12:58PM 36.0739 -115.0764 277° West 178 205 2,800 -840 Descending Los Angeles Center
12:58PM 36.0733 -115.1158 269° West 145 167 2,200 -780 Descending Los Angeles Center
12:59PM 36.0733 -115.1267 270° West 164 189 2,000 -480 Descending Los Angeles Center
01:01PM 36.0667 -115.1500 270° West  Level FlightAware Approximate